sensor_id;sensor_type;location;lat;lon;timestamp;pressure;altitude;pressure_sealevel;temperature;humidity
20037;BME280;10179;42.640;23.312;2024-02-14T00:00:32;93399.28;;;9.69;53.94
20037;BME280;10179;42.640;23.312;2024-02-14T00:02:58;93371.97;;;9.47;53.91
20037;BME280;10179;42.640;23.312;2024-02-14T00:05:23;93377.34;;;9.52;53.86
20037;BME280;10179;42.640;23.312;2024-02-14T00:07:49;93354.53;;;9.41;53.85
20037;BME280;10179;42.640;23.312;2024-02-14T00:10:14;93359.78;;;9.41;53.93
20037;BME280;10179;42.640;23.312;2024-02-14T00:12:40;93397.66;;;9.68;53.76
20037;BME280;10179;42.640;23.312;2024-02-14T00:15:06;93418.44;;;9.82;53.61
20037;BME280;10179;42.640;23.312;2024-02-14T00:17:33;93419.00;;;9.84;53.47
20037;BME280;10179;42.640;23.312;2024-02-14T00:20:00;93383.19;;;9.66;53.44
20037;BME280;10179;42.640;23.312;2024-02-14T00:22:25;93236.78;;;8.62;53.18
20037;BME280;10179;42.640;23.312;2024-02-14T00:24:50;93280.25;;;8.93;53.34
20037;BME280;10179;42.640;23.312;2024-02-14T00:27:16;93379.19;;;9.63;53.13
20037;BME280;10179;42.640;23.312;2024-02-14T00:29:42;93303.84;;;9.05;53.13
20037;BME280;10179;42.640;23.312;2024-02-14T00:32:11;93424.63;;;9.87;53.15
20037;BME280;10179;42.640;23.312;2024-02-14T00:34:36;93430.06;;;9.86;53.03
20037;BME280;10179;42.640;23.312;2024-02-14T00:37:02;93399.38;;;9.63;53.02
20037;BME280;10179;42.640;23.312;2024-02-14T00:39:27;93341.19;;;9.30;53.04
20037;BME280;10179;42.640;23.312;2024-02-14T00:41:53;93427.69;;;9.84;53.01
20037;BME280;10179;42.640;23.312;2024-02-14T00:44:19;93311.03;;;9.10;52.97
20037;BME280;10179;42.640;23.312;2024-02-14T00:46:45;93286.72;;;8.91;52.82
20037;BME280;10179;42.640;23.312;2024-02-14T00:49:11;93425.63;;;9.86;52.96
20037;BME280;10179;42.640;23.312;2024-02-14T00:51:37;93432.69;;;9.86;52.78
20037;BME280;10179;42.640;23.312;2024-02-14T00:54:05;93310.69;;;9.06;52.86
20037;BME280;10179;42.640;23.312;2024-02-14T00:56:31;93363.53;;;9.45;52.88
20037;BME280;10179;42.640;23.312;2024-02-14T00:58:56;93423.22;;;9.85;52.67
20037;BME280;10179;42.640;23.312;2024-02-14T01:01:22;93438.53;;;9.88;52.82
20037;BME280;10179;42.640;23.312;2024-02-14T01:03:47;93387.84;;;9.52;52.86
20037;BME280;10179;42.640;23.312;2024-02-14T01:06:13;93362.88;;;9.19;52.54
20037;BME280;10179;42.640;23.312;2024-02-14T01:08:39;93424.81;;;9.86;52.69
20037;BME280;10179;42.640;23.312;2024-02-14T01:11:06;93428.47;;;9.85;52.70
20037;BME280;10179;42.640;23.312;2024-02-14T01:13:32;93364.78;;;9.42;52.61
20037;BME280;10179;42.640;23.312;2024-02-14T01:15:57;93291.50;;;8.94;52.56
20037;BME280;10179;42.640;23.312;2024-02-14T01:18:23;93434.88;;;9.89;52.53
20037;BME280;10179;42.640;23.312;2024-02-14T01:20:49;93319.28;;;8.95;52.36
20037;BME280;10179;42.640;23.312;2024-02-14T01:23:14;93359.03;;;9.33;52.74
20037;BME280;10179;42.640;23.312;2024-02-14T01:25:40;93398.69;;;9.67;52.42
20037;BME280;10179;42.640;23.312;2024-02-14T01:28:07;93449.56;;;9.78;52.48
20037;BME280;10179;42.640;23.312;2024-02-14T01:30:33;93442.97;;;9.87;52.37
20037;BME280;10179;42.640;23.312;2024-02-14T01:33:00;93428.03;;;9.88;52.30
20037;BME280;10179;42.640;23.312;2024-02-14T01:35:25;93340.84;;;9.39;52.30
20037;BME280;10179;42.640;23.312;2024-02-14T01:37:51;93419.91;;;9.89;52.13
20037;BME280;10179;42.640;23.312;2024-02-14T01:40:17;93316.91;;;9.23;52.16
20037;BME280;10179;42.640;23.312;2024-02-14T01:42:43;93359.78;;;9.41;51.93
20037;BME280;10179;42.640;23.312;2024-02-14T01:45:08;93411.94;;;9.72;51.96
20037;BME280;10179;42.640;23.312;2024-02-14T01:47:34;93372.09;;;9.52;51.85
20037;BME280;10179;42.640;23.312;2024-02-14T01:50:00;93419.56;;;9.86;52.03
20037;BME280;10179;42.640;23.312;2024-02-14T01:52:26;93398.13;;;9.65;51.84
20037;BME280;10179;42.640;23.312;2024-02-14T01:54:52;93343.44;;;9.27;51.86
20037;BME280;10179;42.640;23.312;2024-02-14T01:57:20;93429.72;;;9.82;51.92
20037;BME280;10179;42.640;23.312;2024-02-14T01:59:47;93421.50;;;9.78;51.74
20037;BME280;10179;42.640;23.312;2024-02-14T02:02:14;93419.22;;;9.82;51.85
20037;BME280;10179;42.640;23.312;2024-02-14T02:04:39;93417.88;;;9.79;51.79
20037;BME280;10179;42.640;23.312;2024-02-14T02:07:05;93281.38;;;8.86;51.62
20037;BME280;10179;42.640;23.312;2024-02-14T02:09:30;93422.19;;;9.74;51.93
20037;BME280;10179;42.640;23.312;2024-02-14T02:11:58;93424.22;;;9.72;51.88
20037;BME280;10179;42.640;23.312;2024-02-14T02:14:23;93401.06;;;9.57;52.05
20037;BME280;10179;42.640;23.312;2024-02-14T02:16:49;93423.41;;;9.71;52.15
20037;BME280;10179;42.640;23.312;2024-02-14T02:19:14;93430.28;;;9.72;52.04
20037;BME280;10179;42.640;23.312;2024-02-14T02:21:44;93359.38;;;9.25;52.19
20037;BME280;10179;42.640;23.312;2024-02-14T02:24:11;93322.50;;;8.97;52.03
20037;BME280;10179;42.640;23.312;2024-02-14T02:26:36;93433.56;;;9.68;52.08
20037;BME280;10179;42.640;23.312;2024-02-14T02:29:02;93433.56;;;9.68;51.98
20037;BME280;10179;42.640;23.312;2024-02-14T02:31:27;93441.22;;;9.69;52.10
20037;BME280;10179;42.640;23.312;2024-02-14T02:33:53;93449.25;;;9.44;51.94
20037;BME280;10179;42.640;23.312;2024-02-14T02:36:18;93443.25;;;9.67;51.97
20037;BME280;10179;42.640;23.312;2024-02-14T02:38:44;93438.53;;;9.57;51.89
20037;BME280;10179;42.640;23.312;2024-02-14T02:41:09;93391.66;;;9.38;51.93
20037;BME280;10179;42.640;23.312;2024-02-14T02:43:35;93448.06;;;9.70;51.68
20037;BME280;10179;42.640;23.312;2024-02-14T02:46:01;93309.56;;;8.83;51.54
20037;BME280;10179;42.640;23.312;2024-02-14T02:48:27;93448.50;;;9.67;51.42
20037;BME280;10179;42.640;23.312;2024-02-14T02:50:53;93450.91;;;9.69;51.46
20037;BME280;10179;42.640;23.312;2024-02-14T02:53:19;93423.03;;;9.44;51.07
20037;BME280;10179;42.640;23.312;2024-02-14T02:55:44;93448.50;;;9.67;51.27
20037;BME280;10179;42.640;23.312;2024-02-14T02:58:11;93455.34;;;9.68;51.18
20037;BME280;10179;42.640;23.312;2024-02-14T03:00:37;93460.56;;;9.68;51.08
20037;BME280;10179;42.640;23.312;2024-02-14T03:03:03;93453.75;;;9.67;50.99
20037;BME280;10179;42.640;23.312;2024-02-14T03:05:33;93441.06;;;9.52;51.02
20037;BME280;10179;42.640;23.312;2024-02-14T03:08:00;93463.44;;;9.67;50.95
20037;BME280;10179;42.640;23.312;2024-02-14T03:10:26;93476.31;;;9.68;50.82
20037;BME280;10179;42.640;23.312;2024-02-14T03:12:52;93444.34;;;9.48;50.83
20037;BME280;10179;42.640;23.312;2024-02-14T03:15:18;93476.31;;;9.68;50.68
20037;BME280;10179;42.640;23.312;2024-02-14T03:17:44;93479.97;;;9.67;50.72
20037;BME280;10179;42.640;23.312;2024-02-14T03:20:12;93484.31;;;9.73;50.77
20037;BME280;10179;42.640;23.312;2024-02-14T03:22:41;93453.47;;;9.57;50.74
20037;BME280;10179;42.640;23.312;2024-02-14T03:25:17;93411.44;;;9.33;50.57
20037;BME280;10179;42.640;23.312;2024-02-14T03:27:43;93470.72;;;9.65;50.21
20037;BME280;10179;42.640;23.312;2024-02-14T03:30:14;93495.97;;;9.77;50.24
20037;BME280;10179;42.640;23.312;2024-02-14T03:32:41;93464.41;;;9.54;50.21
20037;BME280;10179;42.640;23.312;2024-02-14T03:35:07;93505.31;;;9.73;50.05
20037;BME280;10179;42.640;23.312;2024-02-14T03:37:32;93503.91;;;9.71;50.33
20037;BME280;10179;42.640;23.312;2024-02-14T03:39:58;93504.16;;;9.69;50.15
20037;BME280;10179;42.640;23.312;2024-02-14T03:42:24;93514.19;;;9.72;50.34
20037;BME280;10179;42.640;23.312;2024-02-14T03:44:51;93494.19;;;9.60;50.12
20037;BME280;10179;42.640;23.312;2024-02-14T03:47:17;93479.69;;;9.57;50.20
20037;BME280;10179;42.640;23.312;2024-02-14T03:49:42;93514.00;;;9.86;49.69
20037;BME280;10179;42.640;23.312;2024-02-14T03:52:07;93509.09;;;9.89;49.63
20037;BME280;10179;42.640;23.312;2024-02-14T03:54:38;93509.91;;;9.90;49.60
20037;BME280;10179;42.640;23.312;2024-02-14T03:57:04;93459.31;;;9.59;49.55
20037;BME280;10179;42.640;23.312;2024-02-14T03:59:35;93255.28;;;8.30;49.25
20037;BME280;10179;42.640;23.312;2024-02-14T04:02:01;93526.38;;;9.97;49.28
20037;BME280;10179;42.640;23.312;2024-02-14T04:04:26;93526.38;;;9.97;49.13
20037;BME280;10179;42.640;23.312;2024-02-14T04:06:52;93525.34;;;9.98;49.15
20037;BME280;10179;42.640;23.312;2024-02-14T04:09:17;93522.28;;;10.01;48.80
20037;BME280;10179;42.640;23.312;2024-02-14T04:11:43;93477.56;;;9.66;48.75
20037;BME280;10179;42.640;23.312;2024-02-14T04:14:08;93527.97;;;9.98;48.65
20037;BME280;10179;42.640;23.312;2024-02-14T04:16:34;93507.16;;;9.85;48.75
20037;BME280;10179;42.640;23.312;2024-02-14T04:19:01;93471.72;;;9.52;48.73
20037;BME280;10179;42.640;23.312;2024-02-14T04:21:27;93247.38;;;8.19;48.53
20037;BME280;10179;42.640;23.312;2024-02-14T04:23:53;93536.28;;;9.95;48.38
20037;BME280;10179;42.640;23.312;2024-02-14T04:26:20;93548.94;;;9.98;48.66
20037;BME280;10179;42.640;23.312;2024-02-14T04:28:45;93538.81;;;10.01;48.50
20037;BME280;10179;42.640;23.312;2024-02-14T04:31:11;93547.81;;;9.94;48.38
20037;BME280;10179;42.640;23.312;2024-02-14T04:33:36;93547.00;;;9.93;48.62
20037;BME280;10179;42.640;23.312;2024-02-14T04:36:02;93547.81;;;9.94;48.80
20037;BME280;10179;42.640;23.312;2024-02-14T04:38:29;93509.50;;;9.74;48.74
20037;BME280;10179;42.640;23.312;2024-02-14T04:40:55;93430.56;;;9.22;48.64
20037;BME280;10179;42.640;23.312;2024-02-14T04:43:21;93545.75;;;9.96;48.71
20037;BME280;10179;42.640;23.312;2024-02-14T04:45:47;93554.63;;;9.95;48.92
20037;BME280;10179;42.640;23.312;2024-02-14T04:48:13;93561.03;;;9.99;48.53
20037;BME280;10179;42.640;23.312;2024-02-14T04:50:39;93536.63;;;9.68;48.49
20037;BME280;10179;42.640;23.312;2024-02-14T04:53:04;93489.47;;;9.50;48.50
20037;BME280;10179;42.640;23.312;2024-02-14T04:55:30;93562.75;;;9.93;48.67
20037;BME280;10179;42.640;23.312;2024-02-14T04:57:57;93211.16;;;7.67;48.41
20037;BME280;10179;42.640;23.312;2024-02-14T05:00:23;93495.75;;;9.49;48.82
20037;BME280;10179;42.640;23.312;2024-02-14T05:02:49;93566.16;;;9.94;48.57
20037;BME280;10179;42.640;23.312;2024-02-14T05:05:14;93576.66;;;9.94;48.59
20037;BME280;10179;42.640;23.312;2024-02-14T05:07:40;93577.66;;;9.93;48.60
20037;BME280;10179;42.640;23.312;2024-02-14T05:10:06;93492.34;;;9.30;48.61
20037;BME280;10179;42.640;23.312;2024-02-14T05:12:32;93587.78;;;9.89;48.81
20037;BME280;10179;42.640;23.312;2024-02-14T05:14:57;93594.44;;;9.92;48.58
20037;BME280;10179;42.640;23.312;2024-02-14T05:17:23;93578.84;;;9.78;48.58
20037;BME280;10179;42.640;23.312;2024-02-14T05:19:48;93451.50;;;8.92;48.47
20037;BME280;10179;42.640;23.312;2024-02-14T05:22:14;93457.09;;;8.96;48.40
20037;BME280;10179;42.640;23.312;2024-02-14T05:24:39;93532.28;;;9.44;48.56
20037;BME280;10179;42.640;23.312;2024-02-14T05:27:05;93548.28;;;9.54;48.43
20037;BME280;10179;42.640;23.312;2024-02-14T05:29:30;93570.34;;;9.65;48.44
20037;BME280;10179;42.640;23.312;2024-02-14T05:31:56;93528.22;;;9.29;48.40
20037;BME280;10179;42.640;23.312;2024-02-14T05:34:22;93505.25;;;9.13;48.46
20037;BME280;10179;42.640;23.312;2024-02-14T05:36:48;93624.50;;;9.89;48.80
20037;BME280;10179;42.640;23.312;2024-02-14T05:39:14;93613.03;;;9.72;48.89
20037;BME280;10179;42.640;23.312;2024-02-14T05:41:42;93557.94;;;9.42;49.08
20037;BME280;10179;42.640;23.312;2024-02-14T05:44:08;93625.31;;;9.90;48.71
20037;BME280;10179;42.640;23.312;2024-02-14T05:46:33;93641.34;;;10.00;48.71
20037;BME280;10179;42.640;23.312;2024-02-14T05:48:58;93649.34;;;10.05;48.25
20037;BME280;10179;42.640;23.312;2024-02-14T05:51:24;93577.56;;;9.69;48.27
20037;BME280;10179;42.640;23.312;2024-02-14T05:53:50;93666.75;;;10.18;47.80
20037;BME280;10179;42.640;23.312;2024-02-14T05:56:15;93667.34;;;10.20;47.65
20037;BME280;10179;42.640;23.312;2024-02-14T05:58:41;93607.53;;;9.92;47.36
20037;BME280;10179;42.640;23.312;2024-02-14T06:01:06;93621.53;;;10.04;47.00
20037;BME280;10179;42.640;23.312;2024-02-14T06:03:31;93657.13;;;10.30;47.35
20037;BME280;10179;42.640;23.312;2024-02-14T06:05:57;93638.25;;;10.21;47.10
20037;BME280;10179;42.640;23.312;2024-02-14T06:08:22;93671.00;;;10.49;46.71
20037;BME280;10179;42.640;23.312;2024-02-14T06:10:49;93648.59;;;10.35;46.33
20037;BME280;10179;42.640;23.312;2024-02-14T06:13:15;93683.22;;;10.43;46.37
20037;BME280;10179;42.640;23.312;2024-02-14T06:15:40;93546.56;;;9.48;46.23
20037;BME280;10179;42.640;23.312;2024-02-14T06:18:05;93634.13;;;9.95;46.51
20037;BME280;10179;42.640;23.312;2024-02-14T06:20:31;93561.28;;;9.49;46.14
20037;BME280;10179;42.640;23.312;2024-02-14T06:22:57;93662.25;;;10.07;46.39
20037;BME280;10179;42.640;23.312;2024-02-14T06:25:23;93647.47;;;9.94;46.45
20037;BME280;10179;42.640;23.312;2024-02-14T06:27:48;93655.19;;;9.89;46.56
20037;BME280;10179;42.640;23.312;2024-02-14T06:30:14;93677.34;;;9.93;46.68
20037;BME280;10179;42.640;23.312;2024-02-14T06:32:39;93696.59;;;10.05;46.60
20037;BME280;10179;42.640;23.312;2024-02-14T06:35:05;93694.41;;;10.02;46.58
20037;BME280;10179;42.640;23.312;2024-02-14T06:37:30;93700.25;;;10.04;46.81
20037;BME280;10179;42.640;23.312;2024-02-14T06:39:56;93568.25;;;9.18;46.71
20037;BME280;10179;42.640;23.312;2024-02-14T06:42:21;93700.81;;;10.06;46.28
20037;BME280;10179;42.640;23.312;2024-02-14T06:44:46;93700.25;;;10.04;46.29
20037;BME280;10179;42.640;23.312;2024-02-14T06:47:12;93709.72;;;10.05;46.19
20037;BME280;10179;42.640;23.312;2024-02-14T06:49:38;93653.19;;;9.72;46.27
20037;BME280;10179;42.640;23.312;2024-02-14T06:52:03;93667.22;;;9.78;46.28
20037;BME280;10179;42.640;23.312;2024-02-14T06:54:29;93689.91;;;9.91;46.19
20037;BME280;10179;42.640;23.312;2024-02-14T06:56:54;93691.19;;;9.82;46.33
20037;BME280;10179;42.640;23.312;2024-02-14T06:59:20;93715.97;;;10.04;46.17
20037;BME280;10179;42.640;23.312;2024-02-14T07:01:45;93722.81;;;10.05;46.12
20037;BME280;10179;42.640;23.312;2024-02-14T07:04:11;93721.22;;;10.04;45.95
20037;BME280;10179;42.640;23.312;2024-02-14T07:06:36;93703.56;;;9.93;46.18
20037;BME280;10179;42.640;23.312;2024-02-14T07:09:02;93642.09;;;9.52;46.01
20037;BME280;10179;42.640;23.312;2024-02-14T07:11:27;93584.59;;;9.20;45.82
20037;BME280;10179;42.640;23.312;2024-02-14T07:13:53;93630.59;;;9.53;45.73
20037;BME280;10179;42.640;23.312;2024-02-14T07:16:18;93649.06;;;9.58;45.50
20037;BME280;10179;42.640;23.312;2024-02-14T07:18:44;93738.44;;;10.18;45.42
20037;BME280;10179;42.640;23.312;2024-02-14T07:21:10;93740.03;;;10.19;45.28
20037;BME280;10179;42.640;23.312;2024-02-14T07:23:35;93738.00;;;10.21;45.54
20037;BME280;10179;42.640;23.312;2024-02-14T07:26:01;93652.44;;;9.47;45.60
20037;BME280;10179;42.640;23.312;2024-02-14T07:28:29;93722.31;;;10.15;45.48
20037;BME280;10179;42.640;23.312;2024-02-14T07:30:54;93711.47;;;10.11;45.27
20037;BME280;10179;42.640;23.312;2024-02-14T07:33:20;93752.34;;;10.37;45.51
20037;BME280;10179;42.640;23.312;2024-02-14T07:35:46;93710.56;;;10.17;45.18
20037;BME280;10179;42.640;23.312;2024-02-14T07:38:13;93736.13;;;10.29;44.95
20037;BME280;10179;42.640;23.312;2024-02-14T07:40:38;93750.31;;;10.39;44.84
20037;BME280;10179;42.640;23.312;2024-02-14T07:43:04;93723.47;;;10.19;44.60
20037;BME280;10179;42.640;23.312;2024-02-14T07:45:31;93675.47;;;9.82;44.54
20037;BME280;10179;42.640;23.312;2024-02-14T07:47:57;93760.91;;;10.33;44.57
20037;BME280;10179;42.640;23.312;2024-02-14T07:50:22;93719.47;;;9.98;44.67
20037;BME280;10179;42.640;23.312;2024-02-14T07:52:48;93726.47;;;10.04;44.60
20037;BME280;10179;42.640;23.312;2024-02-14T07:55:13;93764.59;;;10.25;44.89
20037;BME280;10179;42.640;23.312;2024-02-14T07:57:40;93763.22;;;10.22;45.09
20037;BME280;10179;42.640;23.312;2024-02-14T08:00:06;93692.59;;;9.66;45.15
20037;BME280;10179;42.640;23.312;2024-02-14T08:02:35;93779.81;;;10.16;45.67
20037;BME280;10179;42.640;23.312;2024-02-14T08:05:02;93722.31;;;9.78;45.47
20037;BME280;10179;42.640;23.312;2024-02-14T08:07:27;93750.84;;;9.86;45.74
20037;BME280;10179;42.640;23.312;2024-02-14T08:09:54;93728.28;;;9.85;46.15
20037;BME280;10179;42.640;23.312;2024-02-14T08:12:19;93716.31;;;9.71;46.43
20037;BME280;10179;42.640;23.312;2024-02-14T08:14:45;93740.38;;;9.86;46.21
20037;BME280;10179;42.640;23.312;2024-02-14T08:17:12;93610.72;;;9.02;46.03
20037;BME280;10179;42.640;23.312;2024-02-14T08:19:38;93785.63;;;10.00;46.78
20037;BME280;10179;42.640;23.312;2024-02-14T08:22:04;93782.22;;;9.99;46.79
20037;BME280;10179;42.640;23.312;2024-02-14T08:24:31;93782.44;;;9.98;46.77
20037;BME280;10179;42.640;23.312;2024-02-14T08:26:56;93743.47;;;9.58;46.87
20037;BME280;10179;42.640;23.312;2024-02-14T08:29:22;93782.13;;;9.88;46.69
20037;BME280;10179;42.640;23.312;2024-02-14T08:31:48;93712.63;;;9.35;47.09
20037;BME280;10179;42.640;23.312;2024-02-14T08:34:14;93774.81;;;9.71;47.28
20037;BME280;10179;42.640;23.312;2024-02-14T08:36:39;93749.59;;;9.52;47.57
20037;BME280;10179;42.640;23.312;2024-02-14T08:39:07;93746.78;;;9.47;47.09
20037;BME280;10179;42.640;23.312;2024-02-14T08:41:33;93801.34;;;9.82;47.41
20037;BME280;10179;42.640;23.312;2024-02-14T08:43:58;93802.75;;;9.84;47.31
20037;BME280;10179;42.640;23.312;2024-02-14T08:46:24;93677.41;;;9.06;46.97
20037;BME280;10179;42.640;23.312;2024-02-14T08:48:50;93767.72;;;9.53;46.86
20037;BME280;10179;42.640;23.312;2024-02-14T08:51:16;93800.50;;;9.88;46.38
20037;BME280;10179;42.640;23.312;2024-02-14T08:53:45;93612.16;;;8.54;46.42
20037;BME280;10179;42.640;23.312;2024-02-14T08:56:11;93825.75;;;9.82;46.45
20037;BME280;10179;42.640;23.312;2024-02-14T08:58:36;93674.25;;;8.97;46.29
20037;BME280;10179;42.640;23.312;2024-02-14T09:01:02;93795.38;;;9.74;46.05
20037;BME280;10179;42.640;23.312;2024-02-14T09:03:27;93773.75;;;9.54;46.27
20037;BME280;10179;42.640;23.312;2024-02-14T09:05:53;93789.81;;;9.64;46.07
20037;BME280;10179;42.640;23.312;2024-02-14T09:08:19;93688.31;;;9.03;46.37
20037;BME280;10179;42.640;23.312;2024-02-14T09:10:46;93819.88;;;9.87;46.41
20037;BME280;10179;42.640;23.312;2024-02-14T09:13:11;93823.94;;;9.83;45.96
20037;BME280;10179;42.640;23.312;2024-02-14T09:15:37;93821.16;;;9.77;46.27
20037;BME280;10179;42.640;23.312;2024-02-14T09:18:02;93750.56;;;9.32;46.68
20037;BME280;10179;42.640;23.312;2024-02-14T09:20:28;93744.13;;;9.28;46.76
20037;BME280;10179;42.640;23.312;2024-02-14T09:22:55;93747.72;;;9.34;46.91
20037;BME280;10179;42.640;23.312;2024-02-14T09:25:21;93778.19;;;9.53;47.49
20037;BME280;10179;42.640;23.312;2024-02-14T09:27:49;93813.53;;;9.76;47.39
20037;BME280;10179;42.640;23.312;2024-02-14T09:30:15;93783.81;;;9.57;47.56
20037;BME280;10179;42.640;23.312;2024-02-14T09:32:43;93829.63;;;9.79;47.92
20037;BME280;10179;42.640;23.312;2024-02-14T09:35:08;93834.28;;;9.77;48.11
20037;BME280;10179;42.640;23.312;2024-02-14T09:37:34;93835.69;;;9.80;48.49
20037;BME280;10179;42.640;23.312;2024-02-14T09:39:59;93718.59;;;8.99;48.47
20037;BME280;10179;42.640;23.312;2024-02-14T09:42:38;93799.97;;;9.54;48.26
20037;BME280;10179;42.640;23.312;2024-02-14T09:45:08;93769.50;;;9.35;48.24
20037;BME280;10179;42.640;23.312;2024-02-14T09:47:35;93822.13;;;9.58;48.24
20037;BME280;10179;42.640;23.312;2024-02-14T09:50:05;93720.97;;;9.00;48.38
20037;BME280;10179;42.640;23.312;2024-02-14T09:52:32;93826.88;;;9.43;48.37
20037;BME280;10179;42.640;23.312;2024-02-14T09:54:58;93811.38;;;9.66;48.18
20037;BME280;10179;42.640;23.312;2024-02-14T09:57:25;93828.00;;;9.78;48.27
20037;BME280;10179;42.640;23.312;2024-02-14T09:59:51;93803.53;;;9.66;48.41
20037;BME280;10179;42.640;23.312;2024-02-14T10:02:19;93775.44;;;9.48;47.89
20037;BME280;10179;42.640;23.312;2024-02-14T10:04:45;93777.81;;;9.50;47.72
20037;BME280;10179;42.640;23.312;2024-02-14T10:07:10;93782.66;;;9.53;47.65
20037;BME280;10179;42.640;23.312;2024-02-14T10:09:42;93762.94;;;9.19;47.21
20037;BME280;10179;42.640;23.312;2024-02-14T10:12:09;93831.28;;;9.74;47.68
20037;BME280;10179;42.640;23.312;2024-02-14T10:14:38;93801.09;;;9.65;47.59
20037;BME280;10179;42.640;23.312;2024-02-14T10:17:04;93799.13;;;9.60;47.25
20037;BME280;10179;42.640;23.312;2024-02-14T10:19:30;93704.78;;;9.10;46.97
20037;BME280;10179;42.640;23.312;2024-02-14T10:22:00;93783.25;;;9.55;47.10
20037;BME280;10179;42.640;23.312;2024-02-14T10:24:27;93741.97;;;9.44;46.87
20037;BME280;10179;42.640;23.312;2024-02-14T10:26:54;93823.75;;;10.02;46.74
20037;BME280;10179;42.640;23.312;2024-02-14T10:29:25;93832.59;;;10.08;46.35
20037;BME280;10179;42.640;23.312;2024-02-14T10:31:52;93828.94;;;10.09;46.73
20037;BME280;10179;42.640;23.312;2024-02-14T10:34:18;93736.16;;;9.42;46.53
20037;BME280;10179;42.640;23.312;2024-02-14T10:36:50;93824.44;;;10.16;46.13
20037;BME280;10179;42.640;23.312;2024-02-14T10:39:18;93655.25;;;9.02;45.72
20037;BME280;10179;42.640;23.312;2024-02-14T10:41:44;93663.56;;;8.99;45.49
20037;BME280;10179;42.640;23.312;2024-02-14T10:44:10;93724.84;;;9.48;45.73
20037;BME280;10179;42.640;23.312;2024-02-14T10:46:37;93730.63;;;9.50;45.45
20037;BME280;10179;42.640;23.312;2024-02-14T10:49:04;93832.59;;;10.08;44.99
20037;BME280;10179;42.640;23.312;2024-02-14T10:51:35;93827.34;;;10.08;45.34
20037;BME280;10179;42.640;23.312;2024-02-14T10:54:05;93792.63;;;9.88;45.65
20037;BME280;10179;42.640;23.312;2024-02-14T10:56:38;93835.78;;;10.10;45.51
20037;BME280;10179;42.640;23.312;2024-02-14T10:59:04;93763.91;;;9.49;45.53
20037;BME280;10179;42.640;23.312;2024-02-14T11:01:32;93708.91;;;9.24;45.26
20037;BME280;10179;42.640;23.312;2024-02-14T11:04:00;93821.06;;;9.91;45.29
20037;BME280;10179;42.640;23.312;2024-02-14T11:06:26;93782.13;;;9.69;45.21
20037;BME280;10179;42.640;23.312;2024-02-14T11:09:00;93829.19;;;10.08;45.69
20037;BME280;10179;42.640;23.312;2024-02-14T11:11:28;93749.16;;;9.55;45.53
20037;BME280;10179;42.640;23.312;2024-02-14T11:13:54;93828.09;;;10.15;45.56
20037;BME280;10179;42.640;23.312;2024-02-14T11:16:27;93830.84;;;10.20;45.26
20037;BME280;10179;42.640;23.312;2024-02-14T11:19:06;93824.03;;;10.38;44.71
20037;BME280;10179;42.640;23.312;2024-02-14T11:21:40;93823.97;;;10.26;45.05
20037;BME280;10179;42.640;23.312;2024-02-14T11:24:07;93798.25;;;10.10;44.82
20037;BME280;10179;42.640;23.312;2024-02-14T11:29:16;93833.66;;;10.25;44.67
20037;BME280;10179;42.640;23.312;2024-02-14T11:31:45;93842.56;;;10.18;44.80
20037;BME280;10179;42.640;23.312;2024-02-14T11:34:14;93781.41;;;9.80;45.28
20037;BME280;10179;42.640;23.312;2024-02-14T11:36:44;93818.75;;;10.01;45.66
20037;BME280;10179;42.640;23.312;2024-02-14T11:39:12;93740.69;;;9.53;46.03
20037;BME280;10179;42.640;23.312;2024-02-14T11:41:39;93827.34;;;10.08;46.14
20037;BME280;10179;42.640;23.312;2024-02-14T11:44:05;93830.97;;;10.07;46.21
20037;BME280;10179;42.640;23.312;2024-02-14T11:46:34;93774.81;;;9.71;46.23
20037;BME280;10179;42.640;23.312;2024-02-14T11:49:01;93796.09;;;9.82;46.24
20037;BME280;10179;42.640;23.312;2024-02-14T11:51:32;93814.94;;;9.97;46.11
20037;BME280;10179;42.640;23.312;2024-02-14T11:53:58;93835.41;;;10.07;46.13
20037;BME280;10179;42.640;23.312;2024-02-14T11:56:32;93812.13;;;9.73;45.85
20037;BME280;10179;42.640;23.312;2024-02-14T11:59:04;93792.47;;;9.83;45.87
20037;BME280;10179;42.640;23.312;2024-02-14T12:01:31;93716.22;;;9.41;45.78
20037;BME280;10179;42.640;23.312;2024-02-14T12:04:01;93812.47;;;10.02;45.65
20037;BME280;10179;42.640;23.312;2024-02-14T12:06:28;93775.13;;;9.82;45.51
20037;BME280;10179;42.640;23.312;2024-02-14T12:08:54;93744.22;;;9.65;45.08
20037;BME280;10179;42.640;23.312;2024-02-14T12:11:21;93751.06;;;9.66;44.97
20037;BME280;10179;42.640;23.312;2024-02-14T12:13:50;93821.97;;;10.21;44.92
20037;BME280;10179;42.640;23.312;2024-02-14T12:16:15;93830.84;;;10.20;44.95
20037;BME280;10179;42.640;23.312;2024-02-14T12:18:41;93816.25;;;10.24;44.97
20037;BME280;10179;42.640;23.312;2024-02-14T12:21:07;93779.75;;;10.04;44.72
20037;BME280;10179;42.640;23.312;2024-02-14T12:23:35;93817.50;;;10.29;44.47
20037;BME280;10179;42.640;23.312;2024-02-14T12:26:02;93752.41;;;9.94;44.67
20037;BME280;10179;42.640;23.312;2024-02-14T12:28:29;93811.22;;;10.30;44.62
20037;BME280;10179;42.640;23.312;2024-02-14T12:30:57;93812.59;;;10.32;44.47
20037;BME280;10179;42.640;23.312;2024-02-14T12:33:27;93800.13;;;10.27;44.27
20037;BME280;10179;42.640;23.312;2024-02-14T12:35:57;93796.50;;;10.29;43.97
20037;BME280;10179;42.640;23.312;2024-02-14T12:38:35;93814.25;;;10.45;43.83
20037;BME280;10179;42.640;23.312;2024-02-14T12:41:00;93808.44;;;10.43;43.50
20037;BME280;10179;42.640;23.312;2024-02-14T12:43:27;93807.78;;;10.47;43.58
20037;BME280;10179;42.640;23.312;2024-02-14T12:45:52;93799.97;;;10.41;43.86
20037;BME280;10179;42.640;23.312;2024-02-14T12:48:24;93795.00;;;10.51;43.49
20037;BME280;10179;42.640;23.312;2024-02-14T12:50:53;93659.56;;;9.58;43.47
20037;BME280;10179;42.640;23.312;2024-02-14T12:53:19;93766.16;;;10.33;43.18
20037;BME280;10179;42.640;23.312;2024-02-14T12:55:46;93772.13;;;10.40;42.87